createdAt,value
2022-08-07T00:01:43.649Z,8.40
2022-08-07T00:04:09.627Z,7.85
2022-08-07T00:06:45.578Z,8.60
2022-08-07T00:09:21.049Z,7.18
2022-08-07T00:11:56.044Z,9.13
2022-08-07T00:14:30.577Z,8.23
2022-08-07T00:17:02.586Z,7.75
2022-08-07T00:20:01.649Z,9.00
2022-08-07T00:22:24.937Z,8.98
2022-08-07T00:25:07.334Z,7.82
2022-08-07T00:27:53.404Z,8.65
2022-08-07T00:30:27.258Z,8.32
2022-08-07T00:32:59.885Z,9.02
2022-08-07T00:35:29.998Z,7.88
2022-08-07T00:37:58.419Z,8.77
2022-08-07T00:40:39.814Z,8.10
2022-08-07T00:43:59.605Z,7.75
2022-08-07T00:46:00.264Z,8.55
2022-08-07T00:48:30.934Z,9.57
2022-08-07T00:51:00.313Z,8.80
2022-08-07T00:53:27.693Z,8.07
2022-08-07T00:56:07.368Z,7.85
2022-08-07T00:58:47.430Z,7.30
2022-08-07T01:01:18.286Z,7.07
2022-08-07T01:03:54.682Z,7.45
2022-08-07T01:06:24.779Z,6.35
2022-08-07T01:08:53.852Z,6.25
2022-08-07T01:12:10.025Z,6.85
2022-08-07T01:14:09.502Z,6.80
2022-08-07T01:16:37.120Z,6.43
2022-08-07T01:19:18.315Z,5.80
2022-08-07T01:21:49.099Z,6.53
2022-08-07T01:24:21.229Z,6.22
2022-08-07T01:26:52.153Z,5.05
2022-08-07T01:29:23.418Z,5.15
2022-08-07T01:31:55.938Z,5.85
2022-08-07T01:34:31.394Z,5.40
2022-08-07T01:37:00.930Z,5.65
2022-08-07T01:39:39.653Z,5.18
2022-08-07T01:45:09.987Z,4.28
2022-08-07T01:48:18.954Z,5.45
2022-08-07T01:50:38.320Z,4.82
2022-08-07T01:53:11.732Z,4.28
2022-08-07T01:55:55.381Z,4.35
2022-08-07T01:58:29.462Z,4.25
2022-08-07T02:01:25.418Z,3.60
2022-08-07T02:04:27.630Z,3.78
2022-08-07T02:07:02.686Z,3.22
2022-08-07T02:09:51.598Z,3.50
2022-08-07T02:12:29.011Z,3.10
2022-08-07T02:14:58.501Z,2.88
2022-08-07T02:17:35.099Z,2.35
2022-08-07T02:20:09.551Z,2.50
2022-08-07T02:22:44.841Z,2.60
2022-08-07T02:25:17.510Z,2.38
2022-08-07T02:27:55.136Z,2.40
2022-08-07T02:30:23.117Z,2.50
2022-08-07T02:33:00.996Z,2.63
2022-08-07T02:36:26.813Z,2.30
2022-08-07T02:38:34.475Z,1.88
2022-08-07T02:41:04.550Z,2.15
2022-08-07T02:43:36.231Z,3.65
2022-08-07T02:46:08.895Z,1.98
2022-08-07T02:48:36.806Z,2.17
2022-08-07T02:51:28.963Z,1.90
2022-08-07T02:54:02.940Z,2.58
2022-08-07T02:56:31.659Z,2.75
2022-08-07T02:59:02.178Z,2.08
2022-08-07T03:01:35.989Z,2.58
2022-08-07T03:04:12.642Z,1.92
2022-08-07T03:06:46.139Z,1.98
2022-08-07T03:09:42.164Z,2.17
2022-08-07T03:12:08.103Z,2.42
2022-08-07T03:14:52.191Z,2.28
2022-08-07T03:17:22.146Z,1.98
2022-08-07T03:19:52.906Z,2.20
2022-08-07T03:22:29.543Z,1.90
2022-08-07T03:24:59.906Z,2.17
2022-08-07T03:30:01.635Z,2.03
2022-08-07T03:32:38.738Z,2.05
2022-08-07T03:35:17.639Z,1.92
2022-08-07T03:37:53.323Z,1.73
2022-08-07T03:40:30.876Z,1.55
2022-08-07T03:43:10.009Z,2.00
2022-08-07T03:45:47.884Z,1.98
2022-08-07T03:48:19.869Z,1.88
2022-08-07T03:50:55.923Z,1.52
2022-08-07T03:53:49.936Z,1.40
2022-08-07T03:56:33.106Z,1.50
2022-08-07T03:59:09.534Z,1.40
2022-08-07T04:01:45.430Z,1.33
2022-08-07T04:04:17.755Z,1.40
2022-08-07T04:06:50.805Z,1.40
2022-08-07T04:09:23.432Z,1.20
2022-08-07T04:12:23.691Z,1.23
2022-08-07T04:14:43.920Z,0.90
2022-08-07T04:17:20.258Z,1.17
2022-08-07T04:20:01.363Z,1.55
2022-08-07T04:22:32.058Z,1.77
2022-08-07T04:25:08.828Z,1.20
2022-08-07T04:27:44.174Z,1.50
2022-08-07T04:30:21.395Z,1.40
2022-08-07T04:33:10.439Z,1.38
2022-08-07T04:35:50.208Z,1.67
2022-08-07T04:38:19.163Z,2.03
2022-08-07T04:40:51.681Z,2.45
2022-08-07T04:44:13.188Z,2.25
2022-08-07T04:46:51.350Z,2.00
2022-08-07T04:49:37.492Z,1.98
2022-08-07T04:52:21.168Z,2.13
2022-08-07T04:58:16.094Z,2.70
2022-08-07T04:58:49.639Z,2.55
2022-08-07T05:01:21.546Z,2.30
2022-08-07T05:04:17.127Z,2.95
2022-08-07T05:07:19.516Z,3.30
2022-08-07T05:10:11.229Z,2.70
2022-08-07T05:14:44.826Z,2.10
2022-08-07T05:15:53.683Z,2.88
2022-08-07T05:18:30.811Z,2.20
2022-08-07T05:21:03.845Z,2.15
2022-08-07T05:23:44.003Z,2.78
2022-08-07T05:26:23.534Z,2.33
2022-08-07T05:28:59.531Z,2.47
2022-08-07T05:31:35.060Z,2.60
2022-08-07T05:34:11.418Z,2.70
2022-08-07T05:36:44.503Z,2.30
2022-08-07T05:40:17.843Z,2.63
2022-08-07T05:42:16.138Z,2.60
2022-08-07T05:45:14.514Z,1.88
2022-08-07T05:48:01.994Z,2.55
2022-08-07T05:50:39.605Z,2.20
2022-08-07T05:54:09.679Z,1.95
2022-08-07T05:56:01.872Z,1.88
2022-08-07T05:58:30.314Z,2.22
2022-08-07T06:01:08.432Z,2.55
2022-08-07T06:03:57.139Z,2.00
2022-08-07T06:06:32.769Z,2.13
2022-08-07T06:09:04.562Z,1.80
2022-08-07T06:11:34.800Z,2.80
2022-08-07T06:14:12.503Z,2.10
2022-08-07T06:16:55.807Z,2.45
2022-08-07T06:19:52.233Z,2.00
2022-08-07T06:22:23.746Z,1.92
2022-08-07T06:25:05.702Z,1.75
2022-08-07T06:28:00.186Z,1.70
2022-08-07T06:30:32.109Z,1.77
2022-08-07T06:33:15.710Z,2.00
2022-08-07T06:35:48.056Z,1.80
2022-08-07T06:38:31.632Z,1.80
2022-08-07T06:41:00.810Z,1.65
2022-08-07T06:43:39.463Z,2.28
2022-08-07T06:46:12.652Z,1.52
2022-08-07T06:48:41.901Z,1.30
2022-08-07T06:55:27.396Z,1.35
2022-08-07T06:56:48.653Z,1.20
2022-08-07T07:00:17.516Z,1.40
2022-08-07T07:05:05.528Z,1.35
2022-08-07T07:08:00.148Z,1.27
2022-08-07T07:10:31.223Z,1.35
2022-08-07T07:13:06.315Z,1.48
2022-08-07T07:15:43.177Z,1.65
2022-08-07T07:18:46.953Z,1.10
2022-08-07T07:21:19.331Z,1.00
2022-08-07T07:24:09.555Z,1.00
2022-08-07T07:26:37.739Z,1.00
2022-08-07T07:29:40.658Z,1.40
2022-08-07T07:32:03.091Z,1.00
2022-08-07T07:34:32.216Z,1.15
2022-08-07T07:37:14.741Z,1.27
2022-08-07T07:39:55.250Z,1.05
2022-08-07T07:42:25.782Z,1.02
2022-08-07T07:45:05.846Z,0.90
2022-08-07T07:47:42.640Z,1.02
2022-08-07T07:50:36.682Z,1.40
2022-08-07T07:53:20.476Z,1.00
2022-08-07T07:56:00.674Z,0.77
2022-08-07T07:58:36.893Z,1.30
2022-08-07T08:02:03.205Z,1.20
2022-08-07T08:04:09.456Z,1.50
2022-08-07T08:06:40.684Z,1.27
2022-08-07T08:09:23.328Z,0.98
2022-08-07T08:12:02.245Z,0.93
2022-08-07T08:14:36.195Z,1.30
2022-08-07T08:17:55.893Z,1.05
2022-08-07T08:20:19.715Z,1.60
2022-08-07T08:23:08.213Z,0.90
2022-08-07T08:25:56.535Z,1.10
2022-08-07T08:28:37.681Z,1.08
2022-08-07T08:31:15.739Z,1.30
2022-08-07T08:33:49.467Z,1.25
2022-08-07T08:36:25.615Z,1.50
2022-08-07T08:39:01.925Z,1.40
2022-08-07T08:41:57.674Z,1.30
2022-08-07T08:44:29.575Z,0.98
2022-08-07T08:47:26.351Z,1.00
2022-08-07T08:50:34.985Z,1.10
2022-08-07T08:53:22.552Z,1.10
2022-08-07T08:56:06.774Z,0.95
2022-08-07T08:58:57.146Z,0.80
2022-08-07T09:01:40.112Z,0.88
2022-08-07T09:04:18.793Z,1.00
2022-08-07T09:07:02.265Z,1.20
2022-08-07T09:09:56.700Z,1.02
2022-08-07T09:12:33.076Z,0.90
2022-08-07T09:16:20.599Z,1.00
2022-08-07T09:18:22.545Z,0.90
2022-08-07T09:21:13.896Z,0.93
2022-08-07T09:24:32.505Z,0.85
2022-08-07T09:27:22.421Z,0.90
2022-08-07T09:30:05.933Z,0.98
2022-08-07T09:33:16.772Z,1.20
2022-08-07T09:36:22.709Z,1.00
2022-08-07T09:39:52.468Z,0.90
2022-08-07T09:42:22.915Z,0.85
2022-08-07T09:46:29.092Z,0.82
2022-08-07T09:48:15.111Z,1.10
2022-08-07T09:52:16.279Z,1.05
2022-08-07T09:54:35.124Z,0.68
2022-08-07T09:57:06.255Z,1.08
2022-08-07T10:00:01.402Z,1.00
2022-08-07T10:02:57.018Z,0.80
2022-08-07T10:05:58.304Z,1.00
2022-08-07T10:08:45.584Z,1.00
2022-08-07T10:11:59.791Z,0.80
2022-08-07T10:14:31.176Z,0.88
2022-08-07T10:17:14.241Z,1.20
2022-08-07T10:20:02.288Z,0.85
2022-08-07T10:22:33.256Z,1.10
2022-08-07T10:25:22.898Z,0.90
2022-08-07T10:28:30.899Z,1.00
2022-08-07T10:31:11.371Z,0.80
2022-08-07T10:34:06.283Z,0.70
2022-08-07T10:37:13.253Z,1.02
2022-08-07T10:40:06.055Z,0.80
2022-08-07T10:42:45.778Z,1.10
2022-08-07T10:45:17.758Z,0.75
2022-08-07T10:48:03.155Z,1.00
2022-08-07T10:50:52.368Z,0.90
2022-08-07T10:53:44.394Z,0.88
2022-08-07T10:56:46.225Z,0.80
2022-08-07T10:59:30.334Z,0.73
2022-08-07T11:02:33.444Z,0.75
2022-08-07T11:05:24.226Z,0.93
2022-08-07T11:08:20.201Z,0.80
2022-08-07T11:11:02.915Z,0.73
2022-08-07T11:14:45.362Z,1.20
2022-08-07T11:16:40.324Z,0.85
2022-08-07T11:19:12.641Z,0.70
2022-08-07T11:22:26.612Z,0.80
2022-08-07T11:25:10.402Z,0.70
2022-08-07T11:28:02.357Z,0.80
2022-08-07T11:30:42.646Z,0.82
2022-08-07T11:33:53.613Z,0.85
2022-08-07T11:36:30.805Z,0.82
2022-08-07T11:39:19.528Z,0.90
2022-08-07T11:42:16.899Z,0.88
2022-08-07T11:44:52.584Z,0.80
2022-08-07T11:47:58.820Z,0.90
2022-08-07T11:51:35.059Z,0.90
2022-08-07T11:54:10.237Z,0.80
2022-08-07T11:57:03.572Z,0.90
2022-08-07T12:00:10.821Z,0.60
2022-08-07T12:02:33.593Z,0.77
2022-08-07T12:05:28.565Z,0.88
2022-08-07T12:08:31.770Z,1.05
2022-08-07T12:11:21.441Z,1.00
2022-08-07T12:13:48.906Z,0.80
2022-08-07T12:16:30.743Z,0.80
2022-08-07T12:19:21.622Z,0.95
2022-08-07T12:22:36.278Z,0.80
2022-08-07T12:25:07.988Z,0.80
2022-08-07T12:28:08.721Z,1.00
2022-08-07T12:30:33.087Z,1.00
2022-08-07T12:33:28.393Z,0.80
2022-08-07T12:35:58.886Z,0.90
2022-08-07T12:38:36.918Z,1.02
2022-08-07T12:41:11.476Z,0.82
2022-08-07T12:44:02.975Z,1.00
2022-08-07T12:46:54.474Z,0.80
2022-08-07T12:49:51.603Z,0.85
2022-08-07T12:52:41.710Z,0.65
2022-08-07T12:55:24.900Z,0.80
2022-08-07T12:58:12.950Z,0.90
2022-08-07T13:01:04.597Z,0.82
2022-08-07T13:04:02.013Z,0.85
2022-08-07T13:07:00.275Z,0.52
2022-08-07T13:10:28.434Z,0.90
2022-08-07T13:13:01.292Z,0.80
2022-08-07T13:15:31.715Z,0.87
2022-08-07T13:18:26.660Z,0.95
2022-08-07T13:21:07.092Z,0.90
2022-08-07T13:24:01.217Z,0.98
2022-08-07T13:26:46.057Z,1.00
2022-08-07T13:29:13.260Z,0.60
2022-08-07T13:31:57.837Z,0.73
2022-08-07T13:34:44.695Z,0.68
2022-08-07T13:37:30.710Z,0.68
2022-08-07T13:40:35.556Z,0.77
2022-08-07T13:43:12.971Z,0.90
2022-08-07T13:48:35.055Z,0.70
2022-08-07T13:51:27.279Z,0.60
2022-08-07T13:54:00.668Z,0.68
2022-08-07T13:56:35.639Z,0.50
2022-08-07T13:59:12.692Z,0.70
2022-08-07T14:02:03.778Z,0.77
2022-08-07T14:04:35.631Z,0.60
2022-08-07T14:07:09.219Z,0.95
2022-08-07T14:10:02.091Z,0.70
2022-08-07T14:15:09.590Z,0.70
2022-08-07T14:18:15.558Z,0.95
2022-08-07T14:20:42.220Z,0.60
2022-08-07T14:23:59.278Z,0.80
2022-08-07T14:26:29.914Z,0.60
2022-08-07T14:29:06.005Z,0.80
2022-08-07T14:34:46.419Z,0.52
2022-08-07T14:37:16.830Z,1.00
2022-08-07T14:40:18.148Z,0.60
2022-08-07T14:42:59.795Z,0.90
2022-08-07T14:45:47.154Z,0.70
2022-08-07T14:54:30.269Z,0.60
2022-08-07T14:56:48.037Z,0.55
2022-08-07T15:00:03.738Z,0.63
2022-08-07T15:02:33.220Z,0.70
2022-08-07T15:05:01.505Z,0.70
2022-08-07T15:07:47.445Z,0.70
2022-08-07T15:10:26.650Z,0.93
2022-08-07T15:13:05.683Z,0.63
2022-08-07T15:15:42.057Z,0.80
2022-08-07T15:18:34.096Z,0.60
2022-08-07T15:21:08.245Z,0.70
2022-08-07T15:25:15.778Z,0.60
2022-08-07T15:26:49.604Z,0.70
2022-08-07T15:30:06.817Z,0.80
2022-08-07T15:32:07.787Z,0.80
2022-08-07T15:34:57.114Z,0.60
2022-08-07T15:38:17.470Z,0.60
2022-08-07T15:40:33.770Z,0.60
2022-08-07T15:43:10.713Z,0.70
2022-08-07T15:49:03.683Z,0.50
2022-08-07T15:54:44.317Z,0.80
2022-08-07T15:57:40.012Z,0.70
2022-08-07T16:00:07.092Z,0.60
2022-08-07T16:02:46.625Z,0.73
2022-08-07T16:05:20.160Z,0.52
2022-08-07T16:08:30.479Z,0.50
2022-08-07T16:10:49.297Z,0.70
2022-08-07T16:13:59.272Z,0.95
2022-08-07T16:16:47.585Z,0.80
2022-08-07T16:20:04.317Z,0.60
2022-08-07T16:22:54.365Z,0.75
2022-08-07T16:25:54.534Z,0.70
2022-08-07T16:30:06.346Z,0.93
2022-08-07T16:31:51.505Z,0.80
2022-08-07T16:34:48.501Z,0.60
2022-08-07T16:38:03.571Z,0.77
2022-08-07T16:44:06.489Z,0.88
2022-08-07T16:47:07.583Z,0.73
2022-08-07T16:50:27.752Z,1.00
2022-08-07T16:52:55.669Z,0.70
2022-08-07T16:56:00.260Z,1.08
2022-08-07T16:59:10.566Z,0.70
2022-08-07T17:04:25.567Z,0.80
2022-08-07T17:07:08.061Z,0.80
2022-08-07T17:10:07.008Z,1.00
2022-08-07T17:12:48.322Z,0.80
2022-08-07T17:15:43.761Z,0.90
2022-08-07T17:18:23.778Z,0.93
2022-08-07T17:20:54.847Z,0.88
2022-08-07T17:23:46.441Z,0.90
2022-08-07T17:26:34.924Z,0.90
2022-08-07T17:29:18.368Z,1.00
2022-08-07T17:32:30.276Z,1.13
2022-08-07T17:35:50.031Z,1.08
2022-08-07T17:38:32.210Z,1.20
2022-08-07T17:41:12.299Z,0.90
2022-08-07T17:44:01.924Z,1.02
2022-08-07T17:47:08.289Z,1.02
2022-08-07T17:49:45.531Z,0.85
2022-08-07T17:52:53.935Z,1.42
2022-08-07T17:56:06.222Z,1.05
2022-08-07T17:58:46.159Z,0.98
2022-08-07T18:01:36.639Z,0.90
2022-08-07T18:04:18.220Z,1.20
2022-08-07T18:06:58.028Z,1.35
2022-08-07T18:10:07.667Z,1.38
2022-08-07T18:12:59.796Z,1.65
2022-08-07T18:18:46.178Z,1.40
2022-08-07T18:21:38.336Z,1.00
2022-08-07T18:24:02.519Z,1.30
2022-08-07T18:26:53.213Z,1.10
2022-08-07T18:30:07.343Z,1.17
2022-08-07T18:32:54.774Z,1.20
2022-08-07T18:35:57.429Z,1.30
2022-08-07T18:38:55.332Z,1.70
2022-08-07T18:41:45.048Z,1.90
2022-08-07T18:45:39.841Z,2.00
2022-08-07T18:47:49.744Z,2.20
2022-08-07T18:50:45.667Z,2.60
2022-08-07T18:53:36.553Z,2.42
2022-08-07T18:56:32.111Z,1.67
2022-08-07T18:59:47.432Z,2.30
2022-08-07T19:02:36.935Z,1.48
2022-08-07T19:06:01.950Z,1.90
2022-08-07T19:08:53.807Z,2.03
2022-08-07T19:11:35.753Z,1.75
2022-08-07T19:14:20.095Z,1.80
2022-08-07T19:17:04.871Z,1.88
2022-08-07T19:19:50.864Z,1.90
2022-08-07T19:22:44.823Z,1.60
2022-08-07T19:26:22.889Z,1.70
2022-08-07T19:28:57.820Z,2.00
2022-08-07T19:31:41.525Z,1.92
2022-08-07T19:33:59.539Z,1.88
2022-08-07T19:36:29.441Z,1.40
2022-08-07T19:39:00.315Z,1.88
2022-08-07T19:41:39.083Z,1.23
2022-08-07T19:44:21.389Z,1.70
2022-08-07T19:46:55.738Z,1.63
2022-08-07T19:49:58.490Z,1.60
2022-08-07T19:52:18.567Z,1.70
2022-08-07T19:54:57.426Z,1.52
2022-08-07T19:58:00.891Z,1.60
2022-08-07T20:00:28.706Z,1.50
2022-08-07T20:03:33.683Z,1.58
2022-08-07T20:06:00.379Z,1.65
2022-08-07T20:08:31.561Z,1.48
2022-08-07T20:11:07.018Z,1.48
2022-08-07T20:13:53.001Z,1.70
2022-08-07T20:16:35.737Z,1.75
2022-08-07T20:19:06.188Z,1.58
2022-08-07T20:21:42.151Z,1.55
2022-08-07T20:24:18.130Z,1.63
2022-08-07T20:26:52.010Z,1.75
2022-08-07T20:29:49.293Z,1.75
2022-08-07T20:32:22.788Z,1.65
2022-08-07T20:34:56.060Z,1.10
2022-08-07T20:37:36.982Z,1.55
2022-08-07T20:40:32.454Z,1.30
2022-08-07T20:43:03.202Z,1.70
2022-08-07T20:46:28.241Z,1.42
2022-08-07T20:48:29.640Z,1.10
2022-08-07T20:51:00.203Z,1.50
2022-08-07T20:54:03.141Z,1.58
2022-08-07T20:56:16.564Z,1.55
2022-08-07T20:58:50.416Z,1.75
2022-08-07T21:01:21.765Z,1.60
2022-08-07T21:04:18.584Z,1.88
2022-08-07T21:06:46.569Z,1.20
2022-08-07T21:09:24.519Z,1.70
2022-08-07T21:11:57.151Z,2.22
2022-08-07T21:14:32.061Z,2.13
2022-08-07T21:18:00.460Z,2.00
2022-08-07T21:22:51.403Z,1.57
2022-08-07T21:25:39.281Z,1.48
2022-08-07T21:28:48.497Z,1.77
2022-08-07T21:31:15.094Z,1.40
2022-08-07T21:34:04.624Z,1.40
2022-08-07T21:36:50.387Z,1.40
2022-08-07T21:39:46.104Z,1.60
2022-08-07T21:42:42.637Z,1.90
2022-08-07T21:46:07.724Z,1.52
2022-08-07T21:48:28.262Z,1.70
2022-08-07T21:51:12.452Z,1.48
2022-08-07T21:53:55.087Z,1.58
2022-08-07T21:56:51.942Z,1.50
2022-08-07T22:00:02.781Z,1.52
2022-08-07T22:02:41.287Z,1.73
2022-08-07T22:05:44.712Z,1.55
2022-08-07T22:08:01.487Z,1.60
2022-08-07T22:10:33.857Z,1.30
2022-08-07T22:13:09.153Z,1.60
2022-08-07T22:16:39.392Z,1.63
2022-08-07T22:18:32.439Z,1.45
2022-08-07T22:21:11.551Z,1.73
2022-08-07T22:23:47.308Z,1.50
2022-08-07T22:26:50.244Z,1.35
2022-08-07T22:29:34.053Z,1.35
2022-08-07T22:32:34.445Z,1.88
2022-08-07T22:35:03.100Z,1.73
2022-08-07T22:38:03.581Z,1.70
2022-08-07T22:40:54.613Z,1.80
2022-08-07T22:43:33.900Z,1.67
2022-08-07T22:47:01.915Z,1.80
2022-08-07T22:49:34.009Z,1.85
2022-08-07T22:52:39.608Z,1.90
2022-08-07T22:55:30.418Z,1.52
2022-08-07T22:58:15.657Z,1.73
2022-08-07T23:01:19.450Z,1.70
2022-08-07T23:04:01.113Z,2.10
2022-08-07T23:06:51.481Z,1.88
2022-08-07T23:10:04.376Z,1.60
2022-08-07T23:13:08.641Z,1.58
2022-08-07T23:16:06.349Z,1.40
2022-08-07T23:19:14.653Z,1.48
2022-08-07T23:21:54.972Z,1.55
2022-08-07T23:24:47.777Z,1.50
2022-08-07T23:28:22.857Z,1.63
2022-08-07T23:31:06.212Z,1.75
2022-08-07T23:34:34.908Z,1.70
2022-08-07T23:37:38.003Z,1.60
2022-08-07T23:40:39.829Z,1.90
2022-08-07T23:43:37.842Z,1.65
2022-08-07T23:46:23.887Z,1.73
2022-08-07T23:49:50.689Z,1.80
2022-08-07T23:53:00.145Z,1.60
2022-08-07T23:55:55.994Z,1.63
2022-08-07T23:59:10.652Z,1.58
